Time;durP1;ratioP1;P1;durP2;ratioP2;P2;SDS_P1;SDS_P2;PMS_P1;PMS_P2;Temp;Humidity;BMP_temperature;BMP_pressure;BME280_temperature;BME280_humidity;BME280_pressure;Samples;Min_cycle;Max_cycle;Signal;HPM_P1;HPM_P2
2023/12/11 00:01:33;;;;;;;7.80;4.15;;;7.60;99.90;;;;;;4958024;28;20226;-70
2023/12/11 00:04:00;;;;;;;8.00;4.88;;;7.70;99.90;;;;;;4950588;28;20627;-70
2023/12/11 00:06:27;;;;;;;5.20;3.50;;;7.70;99.90;;;;;;4947389;28;20585;-69
2023/12/11 00:08:55;;;;;;;5.68;3.60;;;7.70;99.90;;;;;;4922230;28;20215;-70
2023/12/11 00:11:22;;;;;;;8.20;3.38;;;7.80;99.90;;;;;;4966216;28;20215;-70
2023/12/11 00:13:49;;;;;;;3.85;3.05;;;7.80;99.90;;;;;;4950918;28;20211;-69
2023/12/11 00:16:17;;;;;;;6.03;3.60;;;7.90;99.90;;;;;;4950166;28;20211;-70
2023/12/11 00:18:44;;;;;;;5.53;3.38;;;8.10;99.90;;;;;;4955150;28;20204;-70
2023/12/11 00:21:11;;;;;;;6.77;3.63;;;8.20;99.90;;;;;;4943780;28;20211;-70
2023/12/11 00:23:38;;;;;;;7.28;2.95;;;8.20;99.90;;;;;;4962808;28;20204;-70
2023/12/11 00:26:06;;;;;;;6.17;3.30;;;8.20;99.90;;;;;;4909796;28;20233;-69
2023/12/11 00:28:33;;;;;;;5.63;3.07;;;9.20;99.90;;;;;;4950589;28;20207;-70
2023/12/11 00:31:01;;;;;;;7.77;3.10;;;8.20;99.90;;;;;;4944943;28;20222;-70
2023/12/11 00:33:28;;;;;;;3.22;2.60;;;8.30;99.90;;;;;;4961586;28;20252;-69
2023/12/11 00:35:55;;;;;;;8.77;2.70;;;8.00;99.90;;;;;;4935396;28;20203;-70
2023/12/11 00:38:22;;;;;;;3.95;2.45;;;8.30;99.90;;;;;;4962474;28;20203;-69
2023/12/11 00:40:50;;;;;;;5.97;2.55;;;;;;;;;;4917670;28;20677;-70
2023/12/11 00:43:19;;;;;;;7.00;2.70;;;8.40;99.90;;;;;;4949699;28;20685;-70
2023/12/11 00:45:47;;;;;;;7.65;2.50;;;;;;;;;;4944676;28;20214;-69
2023/12/11 00:48:13;;;;;;;6.93;2.50;;;8.40;99.90;;;;;;4954461;28;21330;-70
2023/12/11 00:50:40;;;;;;;8.55;2.20;;;8.50;99.90;;;;;;4955088;28;21109;-70
2023/12/11 00:53:07;;;;;;;5.95;2.42;;;8.60;99.90;;;;;;4949959;28;20231;-70
2023/12/11 00:55:34;;;;;;;11.10;3.10;;;8.60;99.90;;;;;;4961883;28;20261;-70
2023/12/11 00:58:01;;;;;;;6.15;2.58;;;8.60;99.90;;;;;;4914883;28;20211;-70
2023/12/11 01:00:29;;;;;;;5.67;3.03;;;8.60;99.90;;;;;;4950264;28;20203;-70
2023/12/11 01:02:56;;;;;;;12.88;2.72;;;8.20;99.90;;;;;;4946144;28;20218;-70
2023/12/11 01:05:23;;;;;;;8.75;2.58;;;8.20;99.90;;;;;;4955821;28;20640;-70
2023/12/11 01:07:50;;;;;;;9.32;2.22;;;8.70;99.90;;;;;;4951168;28;20291;-70
2023/12/11 01:10:17;;;;;;;9.93;2.70;;;8.60;99.90;;;;;;4959961;28;20196;-70
2023/12/11 01:12:44;;;;;;;6.47;2.10;;;8.50;99.90;;;;;;4922064;28;20254;-70
2023/12/11 01:15:12;;;;;;;12.35;2.38;;;8.60;99.90;;;;;;4955566;28;20307;-69
2023/12/11 01:17:40;;;;;;;12.52;3.00;;;8.60;99.90;;;;;;4954443;28;20214;-70
2023/12/11 01:20:07;;;;;;;16.13;2.40;;;8.40;99.90;;;;;;4957708;28;20322;-70
2023/12/11 01:22:34;;;;;;;8.48;2.08;;;8.60;99.90;;;;;;4950717;28;20294;-69
2023/12/11 01:25:02;;;;;;;11.55;2.03;;;8.60;99.90;;;;;;4950952;28;20286;-70
2023/12/11 01:27:29;;;;;;;8.23;2.60;;;8.70;99.90;;;;;;4925004;28;20203;-70
2023/12/11 01:29:56;;;;;;;9.73;2.38;;;9.20;99.90;;;;;;4945400;28;20375;-70
2023/12/11 01:32:23;;;;;;;11.77;2.30;;;8.60;99.90;;;;;;4943917;28;20746;-70
2023/12/11 01:34:52;;;;;;;7.38;1.98;;;8.60;99.90;;;;;;4952728;28;20254;-70
2023/12/11 01:37:19;;;;;;;16.65;2.80;;;8.60;99.90;;;;;;4949681;28;20326;-70
2023/12/11 01:39:46;;;;;;;17.40;2.90;;;8.60;99.90;;;;;;4949098;28;20218;-69
2023/12/11 01:42:13;;;;;;;14.73;2.30;;;8.60;99.90;;;;;;4959604;28;20291;-70
2023/12/11 01:44:40;;;;;;;16.63;2.58;;;8.60;99.90;;;;;;4915587;28;20211;-69
2023/12/11 01:47:07;;;;;;;14.55;2.22;;;8.60;99.90;;;;;;4947890;28;20874;-70
2023/12/11 01:49:37;;;;;;;15.80;2.65;;;8.70;99.90;;;;;;4960243;28;21040;-69
2023/12/11 01:52:06;;;;;;;11.27;2.53;;;8.70;99.90;;;;;;4942615;28;20313;-70
2023/12/11 01:54:34;;;;;;;5.65;1.90;;;8.60;99.90;;;;;;4955987;28;20326;-70
2023/12/11 01:57:01;;;;;;;16.77;2.50;;;8.70;99.90;;;;;;4940530;28;20200;-70
2023/12/11 01:59:28;;;;;;;22.05;3.45;;;8.70;99.90;;;;;;4928766;28;20215;-70
2023/12/11 02:01:55;;;;;;;17.10;2.50;;;8.70;99.90;;;;;;4947120;28;20330;-70
2023/12/11 02:04:22;;;;;;;14.50;2.53;;;8.70;99.90;;;;;;4961482;28;20910;-70
2023/12/11 02:06:50;;;;;;;11.13;2.53;;;8.80;99.90;;;;;;4942145;28;20454;-69
2023/12/11 02:09:18;;;;;;;11.70;2.25;;;8.70;99.90;;;;;;4952235;28;20211;-70
2023/12/11 02:11:45;;;;;;;8.32;2.38;;;8.70;99.90;;;;;;4946621;28;20200;-70
2023/12/11 02:14:12;;;;;;;10.13;2.60;;;8.70;99.90;;;;;;4953929;28;20283;-70
2023/12/11 02:16:39;;;;;;;11.40;2.10;;;8.60;99.90;;;;;;4907807;28;20234;-70
2023/12/11 02:19:06;;;;;;;15.88;2.80;;;8.70;99.90;;;;;;4948745;28;20207;-70
2023/12/11 02:21:33;;;;;;;20.52;2.88;;;8.90;99.90;;;;;;4943782;28;20362;-69
2023/12/11 02:24:04;;;;;;;22.23;2.88;;;8.80;99.90;;;;;;4957352;28;20323;-70
2023/12/11 02:26:33;;;;;;;15.15;2.97;;;8.70;99.90;;;;;;4935635;28;21397;-70
2023/12/11 02:28:59;;;;;;;28.30;3.95;;;8.80;99.90;;;;;;4962709;28;20748;-70
2023/12/11 02:31:26;;;;;;;29.20;3.95;;;8.70;99.90;;;;;;4917022;28;20289;-70
2023/12/11 02:33:53;;;;;;;20.65;4.65;;;8.80;99.90;;;;;;4951187;28;20227;-70
2023/12/11 02:36:20;;;;;;;20.67;3.13;;;8.80;99.90;;;;;;4946577;28;20330;-70
2023/12/11 02:38:47;;;;;;;14.93;3.58;;;8.70;99.90;;;;;;4960785;28;20362;-70
2023/12/11 02:41:14;;;;;;;23.02;3.75;;;;;;;;;;4940092;28;20301;-70
2023/12/11 02:43:43;;;;;;;19.60;3.22;;;8.80;99.90;;;;;;4963028;28;20294;-70
2023/12/11 02:46:09;;;;;;;24.80;3.67;;;8.70;99.90;;;;;;4921177;28;20226;-70
2023/12/11 02:48:36;;;;;;;19.75;4.22;;;8.70;99.90;;;;;;4951350;28;20303;-70
2023/12/11 02:51:04;;;;;;;16.45;3.60;;;8.80;99.90;;;;;;4956152;28;20338;-70
2023/12/11 02:53:31;;;;;;;11.80;3.55;;;8.70;99.90;;;;;;4952219;28;20417;-69
2023/12/11 02:55:58;;;;;;;27.88;3.60;;;8.80;99.90;;;;;;4949499;28;20299;-70
2023/12/11 02:58:25;;;;;;;20.95;4.22;;;8.70;99.90;;;;;;4945443;28;20286;-70
2023/12/11 03:00:53;;;;;;;23.60;3.67;;;8.70;99.90;;;;;;4957042;28;20234;-70
2023/12/11 03:03:20;;;;;;;21.67;3.72;;;8.70;99.90;;;;;;4914011;28;20257;-69
2023/12/11 03:05:47;;;;;;;20.38;3.45;;;8.90;99.90;;;;;;4944687;28;20694;-69
2023/12/11 03:08:14;;;;;;;22.13;3.83;;;8.70;99.90;;;;;;4949862;28;20283;-70
2023/12/11 03:10:40;;;;;;;21.13;3.58;;;9.00;99.90;;;;;;4951207;28;21232;-70
2023/12/11 03:13:07;;;;;;;25.48;3.70;;;8.80;99.90;;;;;;4952718;28;20346;-70
2023/12/11 03:15:34;;;;;;;23.20;3.88;;;8.80;99.90;;;;;;4956760;28;20212;-70
2023/12/11 03:18:03;;;;;;;24.75;3.55;;;8.80;99.90;;;;;;4922813;28;20208;-70
2023/12/11 03:20:30;;;;;;;18.45;3.40;;;;;;;;;;4950316;28;20318;-70
2023/12/11 03:22:57;;;;;;;17.98;3.72;;;8.80;99.90;;;;;;4958367;28;20204;-70
2023/12/11 03:25:24;;;;;;;17.05;2.90;;;10.40;99.90;;;;;;4946601;28;20302;-70
2023/12/11 03:27:50;;;;;;;15.75;4.00;;;8.80;99.90;;;;;;4942340;28;20319;-69
2023/12/11 03:30:17;;;;;;;13.93;3.05;;;8.80;99.90;;;;;;4957332;28;20356;-70
2023/12/11 03:32:44;;;;;;;20.35;3.45;;;9.20;99.90;;;;;;4917429;28;20323;-70
2023/12/11 03:35:12;;;;;;;21.55;4.22;;;8.80;99.90;;;;;;4946401;28;20698;-70
2023/12/11 03:37:39;;;;;;;26.63;3.90;;;8.80;99.90;;;;;;4958556;28;20295;-70
2023/12/11 03:40:07;;;;;;;15.45;3.97;;;8.80;99.90;;;;;;4948875;28;21246;-70
2023/12/11 03:42:34;;;;;;;17.85;3.38;;;8.70;99.90;;;;;;4955217;28;20294;-70
2023/12/11 03:45:01;;;;;;;18.10;3.42;;;8.80;99.90;;;;;;4950591;28;20305;-70
2023/12/11 03:47:28;;;;;;;20.95;3.80;;;8.80;99.90;;;;;;4930419;28;20285;-70
2023/12/11 03:49:55;;;;;;;25.02;3.75;;;8.90;99.90;;;;;;4951038;28;20330;-70
2023/12/11 03:52:23;;;;;;;19.35;3.55;;;8.80;99.90;;;;;;4962242;28;20212;-70
2023/12/11 03:54:51;;;;;;;21.48;3.15;;;;;;;;;;4956438;28;20294;-70
2023/12/11 03:57:18;;;;;;;13.63;3.65;;;8.80;99.90;;;;;;4952401;28;20203;-70
2023/12/11 03:59:45;;;;;;;27.88;3.90;;;8.70;99.90;;;;;;4951390;28;20281;-70
2023/12/11 04:02:12;;;;;;;28.30;3.40;;;9.30;99.90;;;;;;4938284;28;20294;-70
2023/12/11 04:04:39;;;;;;;12.52;3.17;;;8.70;99.90;;;;;;4923173;28;20234;-70
2023/12/11 04:07:06;;;;;;;29.35;4.43;;;8.70;99.90;;;;;;4936838;28;20419;-69
2023/12/11 04:09:34;;;;;;;24.63;4.05;;;8.70;99.90;;;;;;4962541;28;20310;-70
2023/12/11 04:12:01;;;;;;;18.77;4.00;;;8.70;99.90;;;;;;4940461;28;20770;-70
2023/12/11 04:14:28;;;;;;;17.15;3.78;;;8.30;99.90;;;;;;4953019;28;20318;-70
2023/12/11 04:16:55;;;;;;;24.35;4.30;;;;;;;;;;4956023;28;20335;-69
2023/12/11 04:19:22;;;;;;;9.48;2.58;;;8.70;99.90;;;;;;4920044;28;20236;-70
2023/12/11 04:21:49;;;;;;;22.50;3.67;;;8.60;99.90;;;;;;4951725;28;20363;-70
2023/12/11 04:24:16;;;;;;;18.52;3.55;;;8.60;99.90;;;;;;4957611;28;20294;-70
2023/12/11 04:26:44;;;;;;;16.93;4.23;;;8.70;99.90;;;;;;4947385;28;21853;-70
2023/12/11 04:29:11;;;;;;;20.33;4.47;;;9.60;99.90;;;;;;4938140;28;20298;-70
2023/12/11 04:31:38;;;;;;;18.88;3.58;;;8.60;99.90;;;;;;4955626;28;20203;-70
2023/12/11 04:34:05;;;;;;;22.38;3.63;;;8.70;99.90;;;;;;4926662;28;20274;-70
2023/12/11 04:36:32;;;;;;;14.35;3.22;;;8.60;99.90;;;;;;4955648;28;20686;-70
2023/12/11 04:38:59;;;;;;;23.42;4.13;;;;;;;;;;4947759;28;20355;-70
2023/12/11 04:41:26;;;;;;;25.65;3.90;;;8.60;99.90;;;;;;4944677;28;20239;-70
2023/12/11 04:43:54;;;;;;;28.00;4.72;;;8.70;99.90;;;;;;4953958;28;20636;-69
2023/12/11 04:46:21;;;;;;;20.45;3.67;;;8.70;99.90;;;;;;4949512;28;20810;-70
2023/12/11 04:48:48;;;;;;;20.83;3.90;;;8.70;99.90;;;;;;4906399;28;20232;-70
2023/12/11 04:51:15;;;;;;;18.42;3.70;;;8.60;99.90;;;;;;4943063;28;20257;-70
2023/12/11 04:53:42;;;;;;;19.77;3.67;;;9.00;99.90;;;;;;4937296;28;20224;-70
2023/12/11 04:56:10;;;;;;;16.38;3.10;;;7.60;99.90;;;;;;4944773;28;20281;-70
2023/12/11 04:58:37;;;;;;;17.38;3.60;;;8.60;99.90;;;;;;4917349;28;20207;-70
2023/12/11 05:01:05;;;;;;;23.30;3.42;;;8.60;99.90;;;;;;4922945;28;23872;-70
2023/12/11 05:03:35;;;;;;;23.20;5.00;;;;;;;;;;4915401;28;20230;-70
2023/12/11 05:06:03;;;;;;;17.95;4.00;;;;;;;;;;4907798;28;20643;-70
2023/12/11 05:08:29;;;;;;;18.45;3.20;;;8.60;99.90;;;;;;4934731;28;20298;-70
2023/12/11 05:10:56;;;;;;;16.08;4.03;;;8.60;99.90;;;;;;4943117;28;20321;-70
2023/12/11 05:13:23;;;;;;;16.35;4.40;;;8.60;99.90;;;;;;4941318;28;21280;-70
2023/12/11 05:15:50;;;;;;;16.13;3.60;;;8.60;99.90;;;;;;4934527;28;20733;-70
2023/12/11 05:18:19;;;;;;;19.83;3.47;;;8.60;99.90;;;;;;4946177;28;20454;-70
2023/12/11 05:20:46;;;;;;;16.73;3.17;;;8.60;99.90;;;;;;4893343;28;20231;-70
2023/12/11 05:23:13;;;;;;;20.42;3.58;;;8.60;99.90;;;;;;4926459;28;20557;-69
2023/12/11 05:25:39;;;;;;;15.13;3.53;;;8.60;99.90;;;;;;4953255;28;20792;-70
2023/12/11 05:28:06;;;;;;;17.88;3.60;;;8.70;99.90;;;;;;4947028;28;20305;-70
2023/12/11 05:30:33;;;;;;;18.23;4.00;;;9.40;99.90;;;;;;4903047;28;20762;-70
2023/12/11 05:33:00;;;;;;;17.80;4.10;;;9.60;99.90;;;;;;4948978;28;20655;-69
2023/12/11 05:35:29;;;;;;;22.00;4.72;;;9.50;99.90;;;;;;4905136;28;20736;-70
2023/12/11 05:37:57;;;;;;;13.85;3.55;;;9.10;99.90;;;;;;4919384;28;20454;-70
2023/12/11 05:40:24;;;;;;;12.75;3.00;;;9.00;99.90;;;;;;4946801;28;20243;-70
2023/12/11 05:42:51;;;;;;;11.43;3.13;;;9.00;99.90;;;;;;4956113;28;20584;-70
2023/12/11 05:45:18;;;;;;;11.95;2.85;;;8.90;99.90;;;;;;4936277;28;20239;-70
2023/12/11 05:47:46;;;;;;;19.85;4.00;;;8.90;99.90;;;;;;4935083;28;20582;-70
2023/12/11 05:50:13;;;;;;;17.52;3.40;;;8.80;99.90;;;;;;4949352;28;20605;-70
2023/12/11 05:52:41;;;;;;;21.48;3.65;;;8.80;99.90;;;;;;4919570;28;20262;-70
2023/12/11 05:55:08;;;;;;;22.42;4.90;;;8.60;99.90;;;;;;4902674;28;20649;-70
2023/12/11 05:57:35;;;;;;;19.63;4.03;;;8.70;99.90;;;;;;4932368;28;20317;-70
2023/12/11 06:00:03;;;;;;;18.45;3.03;;;8.80;99.90;;;;;;4945419;28;20534;-70
2023/12/11 06:02:30;;;;;;;18.50;4.03;;;8.70;99.90;;;;;;4927971;28;20453;-70
2023/12/11 06:04:57;;;;;;;25.95;3.78;;;8.70;99.90;;;;;;4944762;28;20208;-70
2023/12/11 06:07:24;;;;;;;17.85;3.58;;;8.70;99.90;;;;;;4914318;28;20212;-69
2023/12/11 06:09:52;;;;;;;15.57;4.22;;;8.70;99.90;;;;;;4943981;28;20215;-70
2023/12/11 06:12:19;;;;;;;12.98;2.90;;;8.70;99.90;;;;;;4943721;28;20307;-70
2023/12/11 06:14:46;;;;;;;19.80;4.15;;;8.70;99.90;;;;;;4948282;28;20466;-70
2023/12/11 06:17:13;;;;;;;15.45;3.55;;;8.90;99.90;;;;;;4937639;28;21408;-69
2023/12/11 06:19:42;;;;;;;15.23;3.28;;;8.90;99.90;;;;;;4960183;28;20294;-69
2023/12/11 06:22:09;;;;;;;11.85;2.92;;;8.80;99.90;;;;;;4899824;28;20231;-70
2023/12/11 06:24:38;;;;;;;19.52;3.80;;;8.80;99.90;;;;;;4938266;28;20635;-70
2023/12/11 06:27:06;;;;;;;16.45;3.50;;;8.80;99.90;;;;;;4926815;28;20203;-70
2023/12/11 06:29:33;;;;;;;14.25;3.55;;;8.70;99.90;;;;;;4943722;28;20215;-70
2023/12/11 06:32:00;;;;;;;15.70;3.60;;;8.80;99.90;;;;;;4944222;28;20694;-70
2023/12/11 06:34:27;;;;;;;12.45;2.80;;;8.70;99.90;;;;;;4939685;28;20804;-70
2023/12/11 06:36:55;;;;;;;11.57;3.33;;;;;;;;;;4951162;28;20299;-70
2023/12/11 06:39:23;;;;;;;10.98;3.40;;;8.70;99.90;;;;;;4932815;28;20446;-70
2023/12/11 06:41:49;;;;;;;11.20;3.03;;;8.70;99.90;;;;;;4941965;28;20208;-70
2023/12/11 06:44:18;;;;;;;11.63;3.88;;;8.60;99.90;;;;;;4940483;28;20539;-70
2023/12/11 06:46:45;;;;;;;12.77;3.42;;;8.60;99.90;;;;;;4947924;28;20290;-70
2023/12/11 06:49:11;;;;;;;13.75;3.65;;;8.50;99.90;;;;;;4933480;28;21096;-70
2023/12/11 06:51:38;;;;;;;21.13;3.78;;;8.60;99.90;;;;;;4961486;28;20282;-70
2023/12/11 06:54:05;;;;;;;12.20;4.05;;;8.60;99.90;;;;;;4920870;28;20297;-70
2023/12/11 06:56:32;;;;;;;13.82;4.07;;;8.50;99.90;;;;;;4958363;28;20292;-70
2023/12/11 06:59:00;;;;;;;17.48;3.90;;;8.60;99.90;;;;;;4950967;28;20326;-70
2023/12/11 07:01:30;;;;;;;15.30;4.05;;;8.60;99.90;;;;;;4924859;28;20471;-70
2023/12/11 07:03:57;;;;;;;18.23;3.85;;;8.60;99.90;;;;;;4947201;28;20321;-70
2023/12/11 07:06:24;;;;;;;17.98;4.20;;;9.50;99.90;;;;;;4933952;28;20306;-70
2023/12/11 07:08:51;;;;;;;18.33;4.28;;;8.70;99.90;;;;;;4951361;28;20571;-70
2023/12/11 07:11:18;;;;;;;14.18;4.45;;;8.70;99.90;;;;;;4919463;28;20211;-70
2023/12/11 07:13:45;;;;;;;19.75;4.07;;;8.70;99.90;;;;;;4940710;28;20228;-70
2023/12/11 07:16:13;;;;;;;17.63;4.32;;;8.70;99.90;;;;;;4943350;28;20923;-70
2023/12/11 07:18:42;;;;;;;24.13;4.78;;;8.70;99.90;;;;;;4956544;28;20228;-70
2023/12/11 07:21:10;;;;;;;19.63;4.45;;;8.70;99.90;;;;;;4943524;28;20208;-70
2023/12/11 07:23:37;;;;;;;15.80;3.88;;;8.70;99.90;;;;;;4933361;28;20487;-70
2023/12/11 07:26:07;;;;;;;18.15;4.13;;;8.70;99.90;;;;;;4919691;28;20199;-70
2023/12/11 07:28:34;;;;;;;22.67;4.65;;;8.90;99.90;;;;;;4916396;28;20529;-70
2023/12/11 07:31:02;;;;;;;16.80;3.88;;;8.70;99.90;;;;;;4955793;28;20273;-70
2023/12/11 07:33:29;;;;;;;14.70;3.85;;;11.80;99.90;;;;;;4927267;28;20207;-70
2023/12/11 07:35:58;;;;;;;18.60;3.58;;;8.70;99.90;;;;;;4936903;28;20210;-70
2023/12/11 07:38:26;;;;;;;20.85;3.78;;;8.70;99.90;;;;;;4947907;28;20674;-70
2023/12/11 07:40:54;;;;;;;13.98;4.38;;;8.70;99.90;;;;;;4917116;28;20208;-70
2023/12/11 07:43:21;;;;;;;16.48;4.10;;;8.80;99.90;;;;;;4950447;28;20649;-70
2023/12/11 07:45:48;;;;;;;17.98;4.18;;;8.70;99.90;;;;;;4952936;28;20570;-70
2023/12/11 07:48:14;;;;;;;10.25;4.10;;;8.70;99.90;;;;;;4937859;28;20642;-70
2023/12/11 07:50:41;;;;;;;18.65;4.28;;;8.70;99.90;;;;;;4957399;28;20565;-70
2023/12/11 07:53:10;;;;;;;15.45;4.03;;;8.70;99.90;;;;;;4927722;28;20208;-70
2023/12/11 07:55:37;;;;;;;11.25;3.83;;;8.80;99.90;;;;;;4955832;28;20873;-70
2023/12/11 07:58:04;;;;;;;20.23;4.65;;;8.70;99.90;;;;;;4918341;28;20310;-70
2023/12/11 08:00:31;;;;;;;15.90;3.55;;;8.80;99.90;;;;;;4934147;28;20638;-70
2023/12/11 08:02:58;;;;;;;20.58;3.90;;;8.70;99.90;;;;;;4947776;28;20203;-70
2023/12/11 08:05:25;;;;;;;17.07;4.43;;;8.70;99.90;;;;;;4942684;28;20195;-69
2023/12/11 08:07:52;;;;;;;14.00;4.82;;;8.80;99.90;;;;;;4928031;28;21096;-70
2023/12/11 08:10:21;;;;;;;19.77;3.10;;;8.80;99.90;;;;;;4947914;28;20339;-70
2023/12/11 08:12:51;;;;;;;26.43;4.80;;;8.70;99.90;;;;;;4912667;28;20657;-70
2023/12/11 08:15:18;;;;;;;16.02;4.20;;;8.70;99.90;;;;;;4944627;28;20219;-70
2023/12/11 08:17:45;;;;;;;16.83;3.65;;;8.80;99.90;;;;;;4942394;28;20295;-69
2023/12/11 08:20:16;;;;;;;11.73;3.70;;;8.80;99.90;;;;;;4952664;28;20361;-70
2023/12/11 08:22:43;;;;;;;12.35;3.78;;;8.70;99.90;;;;;;4954295;28;20389;-70
2023/12/11 08:25:12;;;;;;;13.07;3.70;;;8.80;99.90;;;;;;4959928;28;20985;-69
2023/12/11 08:27:41;;;;;;;15.03;3.63;;;8.70;99.90;;;;;;4921670;28;20959;-70
2023/12/11 08:30:09;;;;;;;16.13;3.20;;;8.80;99.90;;;;;;4945651;28;21051;-70
2023/12/11 08:32:38;;;;;;;13.38;3.20;;;8.80;99.90;;;;;;4925927;28;20502;-70
2023/12/11 08:35:06;;;;;;;13.57;2.97;;;8.80;99.90;;;;;;4951142;28;20239;-70
2023/12/11 08:37:33;;;;;;;15.85;3.97;;;8.80;99.90;;;;;;4941250;28;20581;-70
2023/12/11 08:40:00;;;;;;;14.63;3.42;;;8.90;99.90;;;;;;4942338;28;20740;-70
2023/12/11 08:42:27;;;;;;;12.55;3.50;;;8.80;99.90;;;;;;4904240;28;20204;-70
2023/12/11 08:44:56;;;;;;;14.30;3.17;;;8.80;99.90;;;;;;4942951;28;20747;-70
2023/12/11 08:47:23;;;;;;;14.32;4.57;;;8.80;99.90;;;;;;4957172;28;20609;-70
2023/12/11 08:49:50;;;;;;;14.38;4.50;;;8.80;99.90;;;;;;4945936;28;20242;-70
2023/12/11 08:52:17;;;;;;;10.35;4.15;;;8.80;99.90;;;;;;4951896;28;20357;-70
2023/12/11 08:54:44;;;;;;;13.82;3.67;;;8.90;99.90;;;;;;4944494;28;20285;-70
2023/12/11 08:57:10;;;;;;;14.93;3.95;;;8.80;99.90;;;;;;4958936;28;20208;-70
2023/12/11 08:59:38;;;;;;;15.95;3.95;;;8.90;99.90;;;;;;4902435;28;20952;-70
2023/12/11 09:02:07;;;;;;;13.35;4.05;;;8.80;99.90;;;;;;4941356;28;20215;-70
2023/12/11 09:04:35;;;;;;;13.02;3.58;;;8.90;99.90;;;;;;4938674;28;20468;-70
2023/12/11 09:07:02;;;;;;;23.00;3.95;;;8.90;99.90;;;;;;4934137;28;20246;-70
2023/12/11 09:09:29;;;;;;;13.82;3.08;;;9.00;99.90;;;;;;4937793;28;20636;-70
2023/12/11 09:11:56;;;;;;;12.57;2.58;;;8.90;99.90;;;;;;4948137;28;20823;-69
2023/12/11 09:14:24;;;;;;;8.07;2.10;;;;;;;;;;4922212;28;20216;-70
2023/12/11 09:16:51;;;;;;;10.55;2.10;;;8.90;99.90;;;;;;4937181;28;20542;-70
2023/12/11 09:19:19;;;;;;;4.93;1.92;;;8.90;99.90;;;;;;4949681;28;20394;-70
2023/12/11 09:21:46;;;;;;;15.23;2.58;;;8.90;99.90;;;;;;4929364;28;20310;-70
2023/12/11 09:24:13;;;;;;;9.35;2.03;;;8.90;99.90;;;;;;4955251;28;20196;-70
2023/12/11 09:26:40;;;;;;;13.10;2.40;;;8.80;99.90;;;;;;4940648;28;20362;-70
2023/12/11 09:29:07;;;;;;;13.95;2.60;;;8.80;99.90;;;;;;4925566;28;20341;-70
2023/12/11 09:31:34;;;;;;;13.57;3.03;;;8.70;99.90;;;;;;4880406;28;20412;-70
2023/12/11 09:34:01;;;;;;;12.32;3.92;;;8.90;99.90;;;;;;4948341;28;20250;-70
2023/12/11 09:36:29;;;;;;;9.52;3.10;;;8.80;99.90;;;;;;4936268;28;20573;-70
2023/12/11 09:38:58;;;;;;;18.30;3.22;;;8.90;99.90;;;;;;4942459;28;20294;-70
2023/12/11 09:41:27;;;;;;;10.85;2.65;;;8.90;99.90;;;;;;4939133;28;20810;-70
2023/12/11 09:43:54;;;;;;;6.80;2.40;;;8.90;99.90;;;;;;4946302;28;20203;-70
2023/12/11 09:46:22;;;;;;;11.40;2.43;;;8.90;99.90;;;;;;4903019;28;20867;-70
2023/12/11 09:48:49;;;;;;;11.80;2.42;;;9.10;99.90;;;;;;4938914;28;20227;-70
2023/12/11 09:51:17;;;;;;;9.90;2.25;;;9.10;99.90;;;;;;4931686;28;20300;-70
2023/12/11 09:53:47;;;;;;;13.63;2.30;;;9.10;99.90;;;;;;4942193;28;20286;-70
2023/12/11 09:56:15;;;;;;;9.32;2.88;;;9.20;99.90;;;;;;4951342;28;20365;-70
2023/12/11 09:58:44;;;;;;;11.38;2.67;;;9.20;99.90;;;;;;4946170;28;20549;-69
2023/12/11 10:01:14;;;;;;;11.68;2.42;;;9.10;99.90;;;;;;4921298;28;20220;-70
2023/12/11 10:03:40;;;;;;;11.00;2.03;;;9.10;99.90;;;;;;4918433;28;20513;-70
2023/12/11 10:06:08;;;;;;;8.75;2.65;;;9.20;99.90;;;;;;4941692;28;20257;-70
2023/12/11 10:08:42;;;;;;;13.80;2.92;;;9.80;99.90;;;;;;4922016;28;20334;-70
2023/12/11 10:11:12;;;;;;;16.13;3.00;;;9.20;99.90;;;;;;4956285;28;20203;-70
2023/12/11 10:13:39;;;;;;;11.07;3.58;;;9.30;99.90;;;;;;4934197;28;20219;-70
2023/12/11 10:16:09;;;;;;;15.65;4.25;;;9.30;99.90;;;;;;4949776;28;20354;-69
2023/12/11 10:18:48;;;;;;;10.05;4.88;;;9.30;99.90;;;;;;4901037;28;20325;-69
2023/12/11 10:21:15;;;;;;;13.02;5.28;;;9.30;99.90;;;;;;4949875;28;20196;-70
2023/12/11 10:23:42;;;;;;;17.88;4.95;;;9.40;99.90;;;;;;4924078;28;20211;-69
2023/12/11 10:26:10;;;;;;;9.73;4.50;;;9.30;99.90;;;;;;4930035;28;20291;-69
2023/12/11 10:28:37;;;;;;;14.82;4.25;;;9.40;99.90;;;;;;4936914;28;20391;-69
2023/12/11 10:31:05;;;;;;;16.17;4.32;;;9.40;99.90;;;;;;4957025;28;20749;-70
2023/12/11 10:33:32;;;;;;;11.88;3.88;;;9.30;99.90;;;;;;4902484;28;20455;-69
2023/12/11 10:36:10;;;;;;;10.55;3.65;;;9.50;99.90;;;;;;4954392;28;20305;-69
2023/12/11 10:38:37;;;;;;;14.02;3.53;;;9.60;99.90;;;;;;4922571;28;21147;-69
2023/12/11 10:41:04;;;;;;;22.95;4.25;;;9.40;99.90;;;;;;4945930;28;20302;-69
2023/12/11 10:43:42;;;;;;;9.95;2.88;;;9.40;99.90;;;;;;4940647;28;20669;-69
2023/12/11 10:46:09;;;;;;;8.73;3.10;;;9.50;99.90;;;;;;4956364;28;20205;-69
2023/12/11 10:48:36;;;;;;;10.43;2.78;;;9.30;99.90;;;;;;4903555;28;20302;-69
2023/12/11 10:51:04;;;;;;;12.27;2.63;;;9.50;99.90;;;;;;4959903;28;20234;-69
2023/12/11 10:53:32;;;;;;;4.90;2.00;;;8.20;99.90;;;;;;4945247;28;20239;-69
2023/12/11 10:56:01;;;;;;;11.20;2.13;;;9.40;99.90;;;;;;4945342;28;20227;-69
2023/12/11 10:58:28;;;;;;;9.50;2.17;;;9.40;99.90;;;;;;4943071;28;20207;-69
2023/12/11 11:01:01;;;;;;;10.98;2.50;;;9.40;99.90;;;;;;4955288;28;20363;-70
2023/12/11 11:03:30;;;;;;;7.53;1.90;;;9.40;99.90;;;;;;4896760;28;20699;-69
2023/12/11 11:05:58;;;;;;;11.32;2.58;;;9.40;99.90;;;;;;4943691;28;20310;-69
2023/12/11 11:08:35;;;;;;;3.40;1.95;;;9.50;99.90;;;;;;4938958;28;20591;-70
2023/12/11 11:11:09;;;;;;;6.70;2.20;;;9.40;99.90;;;;;;4952631;28;20501;-69
2023/12/11 11:13:40;;;;;;;7.72;2.30;;;9.30;99.90;;;;;;4937292;28;20295;-69
2023/12/11 11:16:08;;;;;;;8.25;2.22;;;9.30;99.90;;;;;;4949936;28;20646;-69
2023/12/11 11:19:06;;;;;;;5.95;2.15;;;9.30;99.90;;;;;;4920310;28;20673;-70
2023/12/11 11:21:33;;;;;;;7.10;2.05;;;9.40;99.90;;;;;;4935159;28;20619;-69
2023/12/11 11:24:00;;;;;;;5.57;1.88;;;9.40;99.90;;;;;;4940376;28;20205;-70
2023/12/11 11:26:37;;;;;;;7.25;2.28;;;9.30;99.90;;;;;;4927598;28;20230;-70
2023/12/11 11:29:05;;;;;;;4.45;2.00;;;9.40;99.90;;;;;;4947029;28;20227;-70
2023/12/11 11:31:50;;;;;;;5.68;1.67;;;9.30;99.90;;;;;;4948583;28;20234;-69
2023/12/11 11:34:44;;;;;;;1.98;1.38;;;9.30;99.90;;;;;;4912566;28;20300;-70
2023/12/11 11:37:14;;;;;;;6.03;1.92;;;9.40;99.90;;;;;;4937163;28;20210;-69
2023/12/11 11:39:57;;;;;;;5.03;2.00;;;9.40;99.90;;;;;;4942771;28;20446;-69
2023/12/11 11:42:24;;;;;;;7.90;2.30;;;9.40;99.90;;;;;;4955439;28;20199;-70
2023/12/11 11:44:56;;;;;;;5.78;2.33;;;10.00;99.90;;;;;;4934223;28;20428;-69
2023/12/11 11:47:24;;;;;;;5.97;1.52;;;9.50;99.90;;;;;;4957082;28;20204;-69
2023/12/11 11:49:51;;;;;;;4.63;1.80;;;9.40;99.90;;;;;;4914598;28;20422;-69
2023/12/11 11:52:26;;;;;;;4.40;1.67;;;9.40;99.90;;;;;;4956037;28;20255;-70
2023/12/11 11:54:58;;;;;;;5.90;1.83;;;9.00;99.90;;;;;;4936200;28;20421;-69
2023/12/11 11:57:28;;;;;;;5.20;1.90;;;9.50;99.90;;;;;;4940827;28;20208;-69
2023/12/11 11:59:55;;;;;;;2.72;1.40;;;9.50;99.90;;;;;;4949657;28;20585;-69
2023/12/11 12:02:24;;;;;;;8.43;1.95;;;9.50;99.90;;;;;;4933510;28;20203;-69
2023/12/11 12:04:51;;;;;;;4.05;1.60;;;9.50;99.90;;;;;;4922329;28;21381;-69
2023/12/11 12:07:18;;;;;;;5.07;1.85;;;9.50;99.90;;;;;;4966366;28;20643;-69
2023/12/11 12:09:51;;;;;;;3.92;1.45;;;9.60;99.90;;;;;;4917724;28;20271;-70
2023/12/11 12:12:18;;;;;;;4.22;1.42;;;9.60;99.90;;;;;;4954492;28;20195;-69
2023/12/11 12:14:45;;;;;;;6.05;1.73;;;9.60;99.90;;;;;;4948386;28;21170;-69
2023/12/11 12:17:12;;;;;;;6.95;1.92;;;9.60;99.90;;;;;;4945358;28;20739;-69
2023/12/11 12:19:40;;;;;;;4.68;1.90;;;9.60;99.90;;;;;;4956729;28;20251;-69
2023/12/11 12:22:13;;;;;;;6.43;1.88;;;9.80;99.90;;;;;;4913859;28;20216;-70
2023/12/11 12:24:40;;;;;;;2.90;1.75;;;10.00;99.90;;;;;;4938027;28;20460;-69
2023/12/11 12:27:10;;;;;;;3.58;1.33;;;9.60;99.90;;;;;;4943796;28;20240;-69
2023/12/11 12:29:38;;;;;;;7.35;1.95;;;9.60;99.90;;;;;;4934946;28;20261;-70
2023/12/11 12:32:08;;;;;;;8.60;2.22;;;9.60;99.90;;;;;;4952854;28;20624;-69
2023/12/11 12:34:37;;;;;;;6.03;1.90;;;9.40;99.90;;;;;;4941175;28;20208;-69
2023/12/11 12:37:07;;;;;;;4.40;1.83;;;9.50;99.90;;;;;;4921801;28;20267;-70
2023/12/11 12:39:35;;;;;;;6.22;2.22;;;9.50;99.90;;;;;;4933311;28;20200;-70
2023/12/11 12:42:02;;;;;;;8.73;2.70;;;9.50;99.90;;;;;;4936382;28;20210;-70
2023/12/11 12:44:29;;;;;;;2.25;1.42;;;9.50;99.90;;;;;;4937603;28;20590;-69
2023/12/11 12:47:02;;;;;;;4.68;1.92;;;9.50;99.90;;;;;;4957856;28;20227;-69
2023/12/11 12:49:32;;;;;;;6.22;2.08;;;9.50;99.90;;;;;;4928308;28;20247;-70
2023/12/11 12:52:00;;;;;;;3.45;1.75;;;9.50;99.90;;;;;;4921118;28;20231;-70
2023/12/11 12:54:28;;;;;;;5.68;1.67;;;9.50;99.90;;;;;;4935251;28;20731;-69
2023/12/11 12:56:56;;;;;;;4.93;1.60;;;9.50;99.90;;;;;;4942563;28;20317;-70